PWSweather.com
Personal Weather Stations
Station Observations
LOBIOS
Galicia, LobiosES

GaliciaLobiosES

Lat: 41.895, Lon: -8.091667

Elevation: 1597

Station Type: Automática/Davis Vantage Pro2 Plus

www.meteolobios.es

High Low Average
Temperature 47.5°F8.6°C 38.5°F3.6°C 43.4°F6.3°C
Dew Point 46.5°F8.1°C 37.2°F2.9°C 41.7°F5.4°C
Winds 6.9 mph 11.1 kmh Calm Calm 1.0 mph S1.6 kmh S
Wind Gusts 11.5 mph18.5 kmh -- 3.0 mph4.8 kmh
Humidity 96% 89% 94%
Pressure 30.14 in1020.7 mb 29.99 in1015.6 mb -
Precipitation 0.76 in19.3 mm - -
Hour Temp Dew Point Humidity Winds Wind Gusts Pressure Precip Precip Rate Daily Precip Total
12:00 AM 45.8°F7.7°C 43.1°F6.2°C 90% 2.3 mph SW3.7 kmh SW 4.6 mph7.4 kmh 30.14 in1020.7 mb - 0.00 in0.0 mm 0.00 in0.0 mm
12:10 AM 46.2°F7.9°C 43.4°F6.3°C 90% 1.1 mph W1.8 kmh W 2.3 mph3.7 kmh 30.14 in1020.7 mb - 0.00 in0.0 mm 0.00 in0.0 mm
12:20 AM 46.5°F8.1°C 43.4°F6.3°C 89% 2.3 mph WSW3.7 kmh WSW 6.9 mph11.1 kmh 30.14 in1020.7 mb - 0.00 in0.0 mm 0.00 in0.0 mm
12:30 AM 46.6°F8.1°C 43.6°F6.4°C 89% 3.5 mph SW5.6 kmh SW 3.5 mph5.6 kmh 30.14 in1020.7 mb - 0.00 in0.0 mm 0.00 in0.0 mm
12:40 AM 46.7°F8.2°C 43.6°F6.4°C 89% Calm Calm -- 30.13 in1020.3 mb - 0.00 in0.0 mm 0.00 in0.0 mm
12:50 AM 46.8°F8.2°C 43.7°F6.5°C 89% 4.6 mph SW7.4 kmh SW 8.1 mph13.0 kmh 30.13 in1020.3 mb - 0.00 in0.0 mm 0.00 in0.0 mm
01:00 AM 46.7°F8.2°C 43.6°F6.4°C 89% 5.8 mph SW9.3 kmh SW 11.5 mph18.5 kmh 30.13 in1020.3 mb - 0.00 in0.0 mm 0.00 in0.0 mm
01:10 AM 46.7°F8.2°C 43.6°F6.4°C 89% 1.1 mph WSW1.8 kmh WSW 4.6 mph7.4 kmh 30.12 in1020.0 mb - 0.00 in0.0 mm 0.00 in0.0 mm
01:20 AM 46.8°F8.2°C 44.0°F6.7°C 90% Calm Calm 1.1 mph1.8 kmh 30.12 in1020.0 mb - 0.02 in0.5 mm 0.02 in0.5 mm
01:30 AM 46.7°F8.2°C 43.9°F6.6°C 90% Calm Calm -- 30.11 in1019.6 mb - 0.03 in0.8 mm 0.05 in1.3 mm
01:40 AM 46.6°F8.1°C 43.8°F6.6°C 90% Calm Calm 2.3 mph3.7 kmh 30.11 in1019.6 mb - 0.02 in0.5 mm 0.06 in1.5 mm
01:50 AM 46.4°F8.0°C 43.6°F6.4°C 90% Calm Calm 1.1 mph1.8 kmh 30.10 in1019.3 mb - 0.01 in0.3 mm 0.07 in1.8 mm
02:00 AM 46.1°F7.8°C 43.4°F6.3°C 90% 1.1 mph N1.8 kmh N 2.3 mph3.7 kmh 30.09 in1019.0 mb - 0.01 in0.3 mm 0.08 in2.0 mm
02:10 AM 46.0°F7.8°C 43.5°F6.4°C 91% 1.1 mph NNE1.8 kmh NNE 3.5 mph5.6 kmh 30.09 in1019.0 mb - 0.02 in0.5 mm 0.09 in2.3 mm
02:20 AM 45.9°F7.7°C 43.4°F6.3°C 91% 1.1 mph NNE1.8 kmh NNE 2.3 mph3.7 kmh 30.08 in1018.6 mb - 0.01 in0.3 mm 0.10 in2.5 mm
02:30 AM 45.6°F7.6°C 43.4°F6.3°C 92% 3.5 mph NNE5.6 kmh NNE 4.6 mph7.4 kmh 30.07 in1018.3 mb - 0.01 in0.3 mm 0.11 in2.8 mm
02:40 AM 45.5°F7.5°C 43.3°F6.3°C 92% 6.9 mph NE11.1 kmh NE 8.1 mph13.0 kmh 30.05 in1017.6 mb - 0.01 in0.3 mm 0.12 in3.0 mm
02:50 AM 45.3°F7.4°C 43.1°F6.2°C 92% 2.3 mph NNE3.7 kmh NNE 4.6 mph7.4 kmh 30.05 in1017.6 mb - 0.02 in0.5 mm 0.13 in3.3 mm
03:00 AM 45.3°F7.4°C 43.4°F6.3°C 93% Calm Calm -- 30.05 in1017.6 mb - 0.01 in0.3 mm 0.14 in3.6 mm
03:10 AM 45.2°F7.3°C 43.3°F6.3°C 93% 1.1 mph NE1.8 kmh NE 5.8 mph9.3 kmh 30.05 in1017.6 mb - 0.00 in0.0 mm 0.14 in3.6 mm
03:20 AM 45.2°F7.3°C 43.3°F6.3°C 93% 1.1 mph E1.8 kmh E 2.3 mph3.7 kmh 30.05 in1017.6 mb - 0.02 in0.5 mm 0.16 in4.1 mm
03:30 AM 45.1°F7.3°C 43.5°F6.4°C 94% 2.3 mph E3.7 kmh E 3.5 mph5.6 kmh 30.03 in1016.9 mb - 0.00 in0.0 mm 0.16 in4.1 mm
03:40 AM 45.2°F7.3°C 43.6°F6.4°C 94% 3.5 mph NNE5.6 kmh NNE 5.8 mph9.3 kmh 30.03 in1016.9 mb - 0.01 in0.3 mm 0.17 in4.3 mm
03:50 AM 45.2°F7.3°C 43.5°F6.4°C 94% Calm Calm -- 30.03 in1016.9 mb - 0.01 in0.3 mm 0.17 in4.3 mm
04:00 AM 45.1°F7.3°C 43.5°F6.4°C 94% 1.1 mph NE1.8 kmh NE 2.3 mph3.7 kmh 30.02 in1016.6 mb - 0.01 in0.3 mm 0.17 in4.3 mm
04:10 AM 45.1°F7.3°C 43.5°F6.4°C 94% 1.1 mph NE1.8 kmh NE 2.3 mph3.7 kmh 30.02 in1016.6 mb - 0.00 in0.0 mm 0.17 in4.3 mm
04:20 AM 45.1°F7.3°C 43.5°F6.4°C 94% Calm Calm -- 30.02 in1016.6 mb - 0.02 in0.5 mm 0.19 in4.8 mm
04:30 AM 45.1°F7.3°C 43.5°F6.4°C 94% Calm Calm 3.5 mph5.6 kmh 30.02 in1016.6 mb - 0.00 in0.0 mm 0.19 in4.8 mm
04:40 AM 45.3°F7.4°C 43.6°F6.4°C 94% Calm Calm -- 30.01 in1016.3 mb - 0.01 in0.3 mm 0.20 in5.1 mm
04:50 AM 45.3°F7.4°C 43.7°F6.5°C 94% 5.8 mph SSW9.3 kmh SSW 6.9 mph11.1 kmh 30.01 in1016.3 mb - 0.01 in0.3 mm 0.21 in5.3 mm
05:00 AM 45.4°F7.4°C 43.8°F6.6°C 94% Calm Calm 1.1 mph1.8 kmh 30.00 in1015.9 mb - 0.02 in0.5 mm 0.22 in5.6 mm
05:10 AM 45.4°F7.4°C 43.8°F6.6°C 94% 1.1 mph SW1.8 kmh SW 4.6 mph7.4 kmh 30.00 in1015.9 mb - 0.02 in0.5 mm 0.24 in6.1 mm
05:20 AM 45.4°F7.4°C 44.1°F6.7°C 95% Calm Calm 3.5 mph5.6 kmh 30.00 in1015.9 mb - 0.00 in0.0 mm 0.24 in6.1 mm
05:30 AM 45.4°F7.4°C 44.1°F6.7°C 95% 2.3 mph N3.7 kmh N 4.6 mph7.4 kmh 30.00 in1015.9 mb - 0.00 in0.0 mm 0.24 in6.1 mm
05:40 AM 45.3°F7.4°C 44.0°F6.7°C 95% 3.5 mph NNE5.6 kmh NNE 5.8 mph9.3 kmh 30.00 in1015.9 mb - 0.01 in0.3 mm 0.24 in6.1 mm
05:50 AM 45.4°F7.4°C 44.0°F6.7°C 95% 3.5 mph SW5.6 kmh SW 5.8 mph9.3 kmh 29.99 in1015.6 mb - 0.00 in0.0 mm 0.24 in6.1 mm
06:00 AM 45.4°F7.4°C 44.1°F6.7°C 95% Calm Calm 2.3 mph3.7 kmh 30.00 in1015.9 mb - 0.02 in0.5 mm 0.26 in6.6 mm
06:10 AM 45.4°F7.4°C 44.1°F6.7°C 95% 4.6 mph SW7.4 kmh SW 8.1 mph13.0 kmh 30.00 in1015.9 mb - 0.01 in0.3 mm 0.27 in6.9 mm
06:20 AM 45.3°F7.4°C 44.0°F6.7°C 95% 4.6 mph WSW7.4 kmh WSW 4.6 mph7.4 kmh 30.00 in1015.9 mb - 0.03 in0.8 mm 0.30 in7.6 mm
06:30 AM 45.2°F7.3°C 43.8°F6.6°C 95% 4.6 mph SW7.4 kmh SW 6.9 mph11.1 kmh 29.99 in1015.6 mb - 0.02 in0.5 mm 0.32 in8.1 mm
06:40 AM 45.0°F7.2°C 43.7°F6.5°C 95% 3.5 mph NNW5.6 kmh NNW 9.2 mph14.8 kmh 30.00 in1015.9 mb - 0.01 in0.3 mm 0.32 in8.1 mm
06:50 AM 44.8°F7.1°C 43.4°F6.3°C 95% Calm Calm 1.1 mph1.8 kmh 30.01 in1016.3 mb - 0.01 in0.3 mm 0.33 in8.4 mm
07:00 AM 44.6°F7.0°C 43.3°F6.3°C 95% Calm Calm 1.1 mph1.8 kmh 30.01 in1016.3 mb - 0.00 in0.0 mm 0.33 in8.4 mm
07:10 AM 44.5°F6.9°C 43.2°F6.2°C 95% 1.1 mph S1.8 kmh S 3.5 mph5.6 kmh 30.01 in1016.3 mb - 0.01 in0.3 mm 0.34 in8.6 mm
07:20 AM 44.3°F6.8°C 43.0°F6.1°C 95% 2.3 mph SW3.7 kmh SW 5.8 mph9.3 kmh 30.02 in1016.6 mb - 0.02 in0.5 mm 0.36 in9.1 mm
07:30 AM 44.2°F6.8°C 42.9°F6.1°C 95% 4.6 mph SW7.4 kmh SW 5.8 mph9.3 kmh 30.03 in1016.9 mb - 0.02 in0.5 mm 0.39 in9.9 mm
07:40 AM 44.2°F6.8°C 42.9°F6.1°C 95% 1.1 mph SW1.8 kmh SW 2.3 mph3.7 kmh 30.03 in1016.9 mb - 0.02 in0.5 mm 0.39 in9.9 mm
07:50 AM 44.2°F6.8°C 42.9°F6.1°C 95% Calm Calm -- 30.03 in1016.9 mb - 0.02 in0.5 mm 0.41 in10.4 mm
08:00 AM 44.2°F6.8°C 42.9°F6.1°C 95% 1.1 mph SW1.8 kmh SW 2.3 mph3.7 kmh 30.04 in1017.3 mb - 0.02 in0.5 mm 0.43 in10.9 mm
08:10 AM 44.2°F6.8°C 42.9°F6.1°C 95% 1.1 mph SW1.8 kmh SW 1.1 mph1.8 kmh 30.04 in1017.3 mb - 0.02 in0.5 mm 0.45 in11.4 mm
08:20 AM 44.1°F6.7°C 42.7°F5.9°C 95% Calm Calm -- 30.04 in1017.3 mb - 0.01 in0.3 mm 0.46 in11.7 mm
08:30 AM 43.8°F6.6°C 42.4°F5.8°C 95% Calm Calm 1.1 mph1.8 kmh 30.03 in1016.9 mb - 0.00 in0.0 mm 0.46 in11.7 mm
08:40 AM 43.4°F6.3°C 42.1°F5.6°C 95% Calm Calm 1.1 mph1.8 kmh 30.03 in1016.9 mb - 0.00 in0.0 mm 0.46 in11.7 mm
08:50 AM 43.1°F6.2°C 41.8°F5.4°C 95% 4.6 mph WSW7.4 kmh WSW 5.8 mph9.3 kmh 30.04 in1017.3 mb - 0.00 in0.0 mm 0.46 in11.7 mm
09:00 AM 43.0°F6.1°C 41.7°F5.4°C 95% 2.3 mph W3.7 kmh W 3.5 mph5.6 kmh 30.04 in1017.3 mb - 0.00 in0.0 mm 0.46 in11.7 mm
09:10 AM 42.9°F6.1°C 41.6°F5.3°C 95% 1.1 mph W1.8 kmh W 1.1 mph1.8 kmh 30.04 in1017.3 mb - 0.00 in0.0 mm 0.46 in11.7 mm
09:20 AM 42.9°F6.1°C 41.5°F5.3°C 95% Calm Calm -- 30.04 in1017.3 mb - 0.00 in0.0 mm 0.46 in11.7 mm
09:30 AM 42.9°F6.1°C 41.5°F5.3°C 95% 1.1 mph W1.8 kmh W 3.5 mph5.6 kmh 30.05 in1017.6 mb - 0.00 in0.0 mm 0.46 in11.7 mm
09:40 AM 42.8°F6.0°C 41.5°F5.3°C 95% 1.1 mph W1.8 kmh W 1.1 mph1.8 kmh 30.05 in1017.6 mb - 0.00 in0.0 mm 0.46 in11.7 mm
09:50 AM 42.7°F5.9°C 41.4°F5.2°C 95% 1.1 mph W1.8 kmh W 2.3 mph3.7 kmh 30.05 in1017.6 mb - 0.00 in0.0 mm 0.46 in11.7 mm
10:00 AM 42.7°F5.9°C 41.4°F5.2°C 95% Calm Calm -- 30.05 in1017.6 mb - 0.00 in0.0 mm 0.46 in11.7 mm
10:10 AM 42.6°F5.9°C 41.3°F5.2°C 95% Calm Calm -- 30.05 in1017.6 mb - 0.00 in0.0 mm 0.46 in11.7 mm
10:20 AM 42.7°F5.9°C 41.4°F5.2°C 95% 1.1 mph W1.8 kmh W 1.1 mph1.8 kmh 30.06 in1017.9 mb - 0.00 in0.0 mm 0.46 in11.7 mm
10:30 AM 42.8°F6.0°C 41.4°F5.2°C 95% Calm Calm -- 30.05 in1017.6 mb - 0.00 in0.0 mm 0.46 in11.7 mm
10:40 AM 42.9°F6.1°C 41.6°F5.3°C 95% Calm Calm 1.1 mph1.8 kmh 30.06 in1017.9 mb - 0.00 in0.0 mm 0.46 in11.7 mm
10:50 AM 43.1°F6.2°C 42.0°F5.6°C 96% 1.1 mph W1.8 kmh W 2.3 mph3.7 kmh 30.07 in1018.3 mb - 0.00 in0.0 mm 0.46 in11.7 mm
11:00 AM 43.5°F6.4°C 42.1°F5.6°C 95% Calm Calm -- 30.07 in1018.3 mb - 0.00 in0.0 mm 0.46 in11.7 mm
11:10 AM 43.9°F6.6°C 42.8°F6.0°C 96% Calm Calm -- 30.07 in1018.3 mb - 0.00 in0.0 mm 0.46 in11.7 mm
11:20 AM 44.4°F6.9°C 43.3°F6.3°C 96% Calm Calm -- 30.07 in1018.3 mb - 0.00 in0.0 mm 0.46 in11.7 mm
11:30 AM 44.6°F7.0°C 43.5°F6.4°C 96% 1.1 mph WSW1.8 kmh WSW 2.3 mph3.7 kmh 30.07 in1018.3 mb - 0.00 in0.0 mm 0.46 in11.7 mm
11:40 AM 44.8°F7.1°C 43.7°F6.5°C 96% Calm Calm -- 30.07 in1018.3 mb - 0.00 in0.0 mm 0.46 in11.7 mm
11:50 AM 44.8°F7.1°C 43.7°F6.5°C 96% 1.1 mph WSW1.8 kmh WSW 2.3 mph3.7 kmh 30.07 in1018.3 mb - 0.00 in0.0 mm 0.46 in11.7 mm
12:00 PM 45.0°F7.2°C 43.9°F6.6°C 96% 1.1 mph WSW1.8 kmh WSW 3.5 mph5.6 kmh 30.07 in1018.3 mb - 0.00 in0.0 mm 0.46 in11.7 mm
12:10 PM 45.1°F7.3°C 44.0°F6.7°C 96% 3.5 mph SSW5.6 kmh SSW 5.8 mph9.3 kmh 30.07 in1018.3 mb - 0.00 in0.0 mm 0.46 in11.7 mm
12:20 PM 45.9°F7.7°C 44.8°F7.1°C 96% 4.6 mph SW7.4 kmh SW 6.9 mph11.1 kmh 30.07 in1018.3 mb - 0.00 in0.0 mm 0.46 in11.7 mm
12:30 PM 47.5°F8.6°C 46.5°F8.1°C 96% 5.8 mph SW9.3 kmh SW 5.8 mph9.3 kmh 30.06 in1017.9 mb - 0.00 in0.0 mm 0.46 in11.7 mm
12:40 PM 47.0°F8.3°C 45.7°F7.6°C 95% 2.3 mph SSW3.7 kmh SSW 4.6 mph7.4 kmh 30.06 in1017.9 mb - 0.00 in0.0 mm 0.46 in11.7 mm
12:50 PM 47.1°F8.4°C 45.7°F7.6°C 95% 1.1 mph SSW1.8 kmh SSW 3.5 mph5.6 kmh 30.06 in1017.9 mb - 0.00 in0.0 mm 0.46 in11.7 mm
01:00 PM 46.9°F8.3°C 45.5°F7.5°C 95% 5.8 mph SW9.3 kmh SW 9.2 mph14.8 kmh 30.07 in1018.3 mb - 0.03 in0.8 mm 0.49 in12.4 mm
01:10 PM 46.0°F7.8°C 44.7°F7.1°C 95% 1.1 mph SSW1.8 kmh SSW 2.3 mph3.7 kmh 30.07 in1018.3 mb - 0.06 in1.5 mm 0.54 in13.7 mm
01:20 PM 45.2°F7.3°C 43.8°F6.6°C 95% 1.1 mph SW1.8 kmh SW 3.5 mph5.6 kmh 30.07 in1018.3 mb - 0.02 in0.5 mm 0.55 in14.0 mm
01:30 PM 44.6°F7.0°C 43.2°F6.2°C 95% 1.1 mph SW1.8 kmh SW 2.3 mph3.7 kmh 30.07 in1018.3 mb - 0.00 in0.0 mm 0.55 in14.0 mm
01:40 PM 44.8°F7.1°C 43.5°F6.4°C 95% Calm Calm -- 30.06 in1017.9 mb - 0.00 in0.0 mm 0.55 in14.0 mm
01:50 PM 44.8°F7.1°C 43.5°F6.4°C 95% 1.1 mph SW1.8 kmh SW 3.5 mph5.6 kmh 30.06 in1017.9 mb - 0.00 in0.0 mm 0.55 in14.0 mm
02:00 PM 44.7°F7.1°C 43.3°F6.3°C 95% 1.1 mph NE1.8 kmh NE 2.3 mph3.7 kmh 30.06 in1017.9 mb - 0.00 in0.0 mm 0.55 in14.0 mm
02:10 PM 44.7°F7.1°C 43.4°F6.3°C 95% 3.5 mph NE5.6 kmh NE 3.5 mph5.6 kmh 30.06 in1017.9 mb - 0.00 in0.0 mm 0.55 in14.0 mm
02:20 PM 44.8°F7.1°C 43.5°F6.4°C 95% Calm Calm -- 30.05 in1017.6 mb - 0.00 in0.0 mm 0.55 in14.0 mm
02:30 PM 45.0°F7.2°C 43.7°F6.5°C 95% Calm Calm -- 30.05 in1017.6 mb - 0.00 in0.0 mm 0.55 in14.0 mm
02:40 PM 45.6°F7.6°C 44.2°F6.8°C 95% Calm Calm -- 30.05 in1017.6 mb - 0.00 in0.0 mm 0.55 in14.0 mm
02:50 PM 45.9°F7.7°C 44.3°F6.8°C 94% 1.1 mph NE1.8 kmh NE 3.5 mph5.6 kmh 30.04 in1017.3 mb - 0.01 in0.3 mm 0.56 in14.2 mm
03:00 PM 46.0°F7.8°C 44.4°F6.9°C 94% 2.3 mph SW3.7 kmh SW 3.5 mph5.6 kmh 30.05 in1017.6 mb - 0.00 in0.0 mm 0.56 in14.2 mm
03:10 PM 46.0°F7.8°C 44.3°F6.8°C 94% 4.6 mph WSW7.4 kmh WSW 5.8 mph9.3 kmh 30.04 in1017.3 mb - 0.02 in0.5 mm 0.58 in14.7 mm
03:20 PM 45.8°F7.7°C 44.2°F6.8°C 94% Calm Calm -- 30.05 in1017.6 mb - 0.00 in0.0 mm 0.58 in14.7 mm
03:30 PM 45.7°F7.6°C 44.1°F6.7°C 94% 2.3 mph NNW3.7 kmh NNW 3.5 mph5.6 kmh 30.05 in1017.6 mb - 0.00 in0.0 mm 0.58 in14.7 mm
03:40 PM 45.6°F7.6°C 44.0°F6.7°C 94% Calm Calm -- 30.04 in1017.3 mb - 0.00 in0.0 mm 0.58 in14.7 mm
03:50 PM 45.8°F7.7°C 44.2°F6.8°C 94% Calm Calm -- 30.05 in1017.6 mb - 0.00 in0.0 mm 0.58 in14.7 mm
04:00 PM 45.3°F7.4°C 43.4°F6.3°C 93% 4.6 mph WSW7.4 kmh WSW 6.9 mph11.1 kmh 30.06 in1017.9 mb - 0.00 in0.0 mm 0.58 in14.7 mm
04:10 PM 43.7°F6.5°C 41.5°F5.3°C 92% 4.6 mph NNE7.4 kmh NNE 10.4 mph16.7 kmh 30.07 in1018.3 mb - 0.02 in0.5 mm 0.60 in15.2 mm
04:20 PM 42.4°F5.8°C 40.2°F4.6°C 92% 3.5 mph NNE5.6 kmh NNE 3.5 mph5.6 kmh 30.07 in1018.3 mb - 0.03 in0.8 mm 0.63 in16.0 mm
04:30 PM 42.0°F5.6°C 39.8°F4.3°C 92% Calm Calm 2.3 mph3.7 kmh 30.07 in1018.3 mb - 0.01 in0.3 mm 0.63 in16.0 mm
04:40 PM 41.6°F5.3°C 39.5°F4.2°C 92% Calm Calm 4.6 mph7.4 kmh 30.08 in1018.6 mb - 0.00 in0.0 mm 0.63 in16.0 mm
04:50 PM 41.2°F5.1°C 39.1°F3.9°C 92% Calm Calm -- 30.09 in1019.0 mb - 0.02 in0.5 mm 0.65 in16.5 mm
05:00 PM 41.1°F5.1°C 39.0°F3.9°C 92% 1.1 mph SSW1.8 kmh SSW 2.3 mph3.7 kmh 30.08 in1018.6 mb - 0.05 in1.3 mm 0.69 in17.5 mm
05:10 PM 41.1°F5.1°C 39.0°F3.9°C 92% Calm Calm 1.1 mph1.8 kmh 30.08 in1018.6 mb - 0.02 in0.5 mm 0.71 in18.0 mm
05:20 PM 41.0°F5.0°C 38.9°F3.8°C 92% 4.6 mph SW7.4 kmh SW 6.9 mph11.1 kmh 30.08 in1018.6 mb - 0.00 in0.0 mm 0.71 in18.0 mm
05:30 PM 41.0°F5.0°C 39.1°F3.9°C 93% 4.6 mph WSW7.4 kmh WSW 4.6 mph7.4 kmh 30.08 in1018.6 mb - 0.01 in0.3 mm 0.72 in18.3 mm
05:40 PM 41.0°F5.0°C 39.1°F3.9°C 93% 2.3 mph SW3.7 kmh SW 4.6 mph7.4 kmh 30.09 in1019.0 mb - 0.02 in0.5 mm 0.72 in18.3 mm
05:50 PM 40.9°F4.9°C 39.0°F3.9°C 93% 2.3 mph SW3.7 kmh SW 3.5 mph5.6 kmh 30.09 in1019.0 mb - 0.01 in0.3 mm 0.73 in18.5 mm
06:00 PM 40.8°F4.9°C 38.9°F3.8°C 93% Calm Calm -- 30.09 in1019.0 mb - 0.01 in0.3 mm 0.74 in18.8 mm
06:10 PM 40.7°F4.8°C 38.8°F3.8°C 93% Calm Calm -- 30.09 in1019.0 mb - 0.00 in0.0 mm 0.74 in18.8 mm
06:20 PM 40.6°F4.8°C 38.7°F3.7°C 93% Calm Calm -- 30.09 in1019.0 mb - 0.00 in0.0 mm 0.74 in18.8 mm
06:30 PM 40.4°F4.7°C 38.5°F3.6°C 93% Calm Calm -- 30.09 in1019.0 mb - 0.00 in0.0 mm 0.74 in18.8 mm
06:40 PM 40.1°F4.5°C 38.3°F3.5°C 93% Calm Calm -- 30.09 in1019.0 mb - 0.00 in0.0 mm 0.74 in18.8 mm
06:50 PM 39.9°F4.4°C 38.0°F3.3°C 93% Calm Calm -- 30.09 in1019.0 mb - 0.00 in0.0 mm 0.74 in18.8 mm
07:00 PM 39.8°F4.3°C 37.9°F3.3°C 93% Calm Calm -- 30.09 in1019.0 mb - 0.00 in0.0 mm 0.74 in18.8 mm
07:10 PM 39.7°F4.3°C 38.1°F3.4°C 94% Calm Calm -- 30.10 in1019.3 mb - 0.00 in0.0 mm 0.74 in18.8 mm
07:20 PM 39.7°F4.3°C 38.1°F3.4°C 94% Calm Calm -- 30.11 in1019.6 mb - 0.00 in0.0 mm 0.74 in18.8 mm
07:30 PM 39.7°F4.3°C 38.1°F3.4°C 94% 1.1 mph SW1.8 kmh SW 2.3 mph3.7 kmh 30.11 in1019.6 mb - 0.00 in0.0 mm 0.74 in18.8 mm
07:40 PM 39.7°F4.3°C 38.1°F3.4°C 94% Calm Calm -- 30.10 in1019.3 mb - 0.00 in0.0 mm 0.74 in18.8 mm
07:50 PM 39.8°F4.3°C 38.2°F3.4°C 94% 1.1 mph SW1.8 kmh SW 2.3 mph3.7 kmh 30.11 in1019.6 mb - 0.00 in0.0 mm 0.74 in18.8 mm
08:00 PM 39.7°F4.3°C 38.2°F3.4°C 94% Calm Calm 1.1 mph1.8 kmh 30.11 in1019.6 mb - 0.00 in0.0 mm 0.74 in18.8 mm
08:10 PM 39.7°F4.3°C 38.1°F3.4°C 94% Calm Calm -- 30.11 in1019.6 mb - 0.00 in0.0 mm 0.74 in18.8 mm
08:20 PM 39.7°F4.3°C 38.1°F3.4°C 94% Calm Calm -- 30.12 in1020.0 mb - 0.01 in0.3 mm 0.75 in19.1 mm
08:30 PM 39.7°F4.3°C 38.1°F3.4°C 94% Calm Calm -- 30.12 in1020.0 mb - 0.01 in0.3 mm 0.75 in19.1 mm
08:40 PM 39.7°F4.3°C 38.1°F3.4°C 94% Calm Calm -- 30.11 in1019.6 mb - 0.00 in0.0 mm 0.75 in19.1 mm
08:50 PM 39.6°F4.2°C 38.0°F3.3°C 94% 2.3 mph SW3.7 kmh SW 3.5 mph5.6 kmh 30.12 in1020.0 mb - 0.00 in0.0 mm 0.75 in19.1 mm
09:00 PM 39.6°F4.2°C 38.0°F3.3°C 94% 1.1 mph SW1.8 kmh SW 1.1 mph1.8 kmh 30.12 in1020.0 mb - 0.00 in0.0 mm 0.75 in19.1 mm
09:10 PM 39.6°F4.2°C 38.3°F3.5°C 95% Calm Calm -- 30.12 in1020.0 mb - 0.00 in0.0 mm 0.75 in19.1 mm
09:20 PM 39.6°F4.2°C 38.3°F3.5°C 95% Calm Calm -- 30.12 in1020.0 mb - 0.00 in0.0 mm 0.75 in19.1 mm
09:30 PM 39.6°F4.2°C 38.3°F3.5°C 95% Calm Calm -- 30.12 in1020.0 mb - 0.00 in0.0 mm 0.75 in19.1 mm
09:40 PM 39.5°F4.2°C 38.2°F3.4°C 95% Calm Calm -- 30.12 in1020.0 mb - 0.00 in0.0 mm 0.75 in19.1 mm
09:50 PM 39.5°F4.2°C 38.2°F3.4°C 95% Calm Calm -- 30.12 in1020.0 mb - 0.00 in0.0 mm 0.75 in19.1 mm
10:00 PM 39.4°F4.1°C 38.1°F3.4°C 95% 1.1 mph WNW1.8 kmh WNW 4.6 mph7.4 kmh 30.12 in1020.0 mb - 0.00 in0.0 mm 0.75 in19.1 mm
10:10 PM 39.2°F4.0°C 37.9°F3.3°C 95% Calm Calm -- 30.12 in1020.0 mb - 0.00 in0.0 mm 0.75 in19.1 mm
10:20 PM 39.1°F3.9°C 37.8°F3.2°C 95% Calm Calm -- 30.12 in1020.0 mb - 0.00 in0.0 mm 0.75 in19.1 mm
10:30 PM 38.8°F3.8°C 37.5°F3.1°C 95% Calm Calm -- 30.13 in1020.3 mb - 0.00 in0.0 mm 0.75 in19.1 mm
10:40 PM 38.5°F3.6°C 37.2°F2.9°C 95% 1.1 mph NNE1.8 kmh NNE 3.5 mph5.6 kmh 30.13 in1020.3 mb - 0.00 in0.0 mm 0.75 in19.1 mm
10:50 PM 38.5°F3.6°C 37.2°F2.9°C 95% Calm Calm -- 30.13 in1020.3 mb - 0.01 in0.3 mm 0.76 in19.3 mm
11:00 PM 38.5°F3.6°C 37.2°F2.9°C 95% Calm Calm -- 30.14 in1020.7 mb - 0.00 in0.0 mm 0.76 in19.3 mm
11:10 PM 38.7°F3.7°C 37.4°F3.0°C 95% Calm Calm -- 30.14 in1020.7 mb - 0.00 in0.0 mm 0.76 in19.3 mm
11:20 PM 38.7°F3.7°C 37.4°F3.0°C 95% 1.1 mph NNE1.8 kmh NNE 2.3 mph3.7 kmh 30.14 in1020.7 mb - 0.00 in0.0 mm 0.76 in19.3 mm
11:30 PM 38.8°F3.8°C 37.5°F3.1°C 95% 2.3 mph WNW3.7 kmh WNW 4.6 mph7.4 kmh 30.14 in1020.7 mb - 0.00 in0.0 mm 0.76 in19.3 mm
11:40 PM 38.7°F3.7°C 37.4°F3.0°C 95% 3.5 mph SW5.6 kmh SW 3.5 mph5.6 kmh 30.14 in1020.7 mb - 0.00 in0.0 mm 0.76 in19.3 mm
11:50 PM 38.7°F3.7°C 37.4°F3.0°C 95% Calm Calm 3.5 mph5.6 kmh 30.14 in1020.7 mb - 0.00 in0.0 mm 0.76 in19.3 mm